createdAt,value
2017-08-05T00:00:34.749Z,66.90
2017-08-05T00:03:02.591Z,69.00
2017-08-05T00:05:30.226Z,68.10
2017-08-05T00:07:57.994Z,68.80
2017-08-05T00:10:25.621Z,67.70
2017-08-05T00:12:53.249Z,68.20
2017-08-05T00:15:20.926Z,68.10
2017-08-05T00:17:48.672Z,68.30
2017-08-05T00:20:16.301Z,68.40
2017-08-05T00:22:44.064Z,68.50
2017-08-05T00:25:11.690Z,68.50
2017-08-05T00:27:39.322Z,68.80
2017-08-05T00:30:07.002Z,68.90
2017-08-05T00:32:34.634Z,68.70
2017-08-05T00:35:02.266Z,68.70
2017-08-05T00:37:29.941Z,68.90
2017-08-05T00:39:57.579Z,68.70
2017-08-05T00:42:25.214Z,68.70
2017-08-05T00:44:52.982Z,69.30
2017-08-05T00:47:20.610Z,69.00
2017-08-05T00:49:48.245Z,69.10
2017-08-05T00:52:16.010Z,69.00
2017-08-05T00:54:43.651Z,69.40
2017-08-05T00:57:11.292Z,69.30
2017-08-05T00:59:38.974Z,69.00
2017-08-05T01:02:06.993Z,69.30
2017-08-05T01:04:34.622Z,69.30
2017-08-05T01:07:02.335Z,68.90
2017-08-05T01:09:29.969Z,69.40
2017-08-05T01:11:58.089Z,70.00
2017-08-05T01:14:25.774Z,70.00
2017-08-05T01:16:53.406Z,71.00
2017-08-05T01:19:21.535Z,70.90
2017-08-05T01:21:49.218Z,70.90
2017-08-05T01:24:17.261Z,71.20
2017-08-05T01:26:45.306Z,71.00
2017-08-05T01:29:13.013Z,71.00
2017-08-05T01:31:40.663Z,71.00
2017-08-05T01:34:08.302Z,71.20
2017-08-05T01:36:36.072Z,71.00
2017-08-05T01:39:03.837Z,70.90
2017-08-05T01:41:31.569Z,70.60
2017-08-05T01:43:59.277Z,70.70
2017-08-05T01:46:26.962Z,70.10
2017-08-05T01:48:54.708Z,70.30
2017-08-05T01:51:22.467Z,70.90
2017-08-05T01:53:50.118Z,71.50
2017-08-05T01:56:17.773Z,71.10
2017-08-05T01:58:46.004Z,71.20
2017-08-05T02:01:13.717Z,71.20
2017-08-05T02:03:41.396Z,71.00
2017-08-05T02:06:09.244Z,72.00
2017-08-05T02:08:36.900Z,71.40
2017-08-05T02:11:04.540Z,70.80
2017-08-05T02:13:32.229Z,71.20
2017-08-05T02:15:59.858Z,71.00
2017-08-05T02:18:27.887Z,71.80
2017-08-05T02:20:55.577Z,71.80
2017-08-05T02:23:23.214Z,71.20
2017-08-05T02:25:50.850Z,71.60
2017-08-05T02:28:18.937Z,71.50
2017-08-05T02:30:46.598Z,71.50
2017-08-05T02:33:14.228Z,71.40
2017-08-05T02:35:42.009Z,71.70
2017-08-05T02:38:09.661Z,70.90
2017-08-05T02:40:37.395Z,71.20
2017-08-05T02:43:05.106Z,71.60
2017-08-05T02:45:32.753Z,71.50
2017-08-05T02:48:00.386Z,71.90
2017-08-05T02:50:28.083Z,72.00
2017-08-05T02:52:55.728Z,72.20
2017-08-05T02:55:23.475Z,72.40
2017-08-05T02:57:51.158Z,72.30
2017-08-05T03:00:19.276Z,71.00
2017-08-05T03:02:46.920Z,71.00
2017-08-05T03:05:14.668Z,70.60
2017-08-05T03:07:42.298Z,70.70
2017-08-05T03:10:09.957Z,70.90
2017-08-05T03:12:37.704Z,71.30
2017-08-05T03:15:05.347Z,71.20
2017-08-05T03:17:32.991Z,71.80
2017-08-05T03:20:00.667Z,71.70
2017-08-05T03:22:28.699Z,71.70
2017-08-05T03:24:56.335Z,71.70
2017-08-05T03:27:24.047Z,71.90
2017-08-05T03:29:51.678Z,71.70
2017-08-05T03:32:19.376Z,72.20
2017-08-05T03:34:47.061Z,71.90
2017-08-05T03:37:15.178Z,70.20
2017-08-05T03:39:42.823Z,70.20
2017-08-05T03:42:10.511Z,70.40
2017-08-05T03:44:38.146Z,69.90
2017-08-05T03:47:06.178Z,69.40
2017-08-05T03:49:33.853Z,69.40
2017-08-05T03:52:01.969Z,69.00
2017-08-05T03:54:29.606Z,69.00
2017-08-05T03:56:57.366Z,69.60
2017-08-05T03:59:25.003Z,70.20
2017-08-05T04:01:52.651Z,70.50
2017-08-05T04:04:20.333Z,70.60
2017-08-05T04:06:48.363Z,70.10
2017-08-05T04:09:16.097Z,70.10
2017-08-05T04:11:43.788Z,70.60
2017-08-05T04:14:11.417Z,70.90
2017-08-05T04:16:39.544Z,70.70
2017-08-05T04:19:07.218Z,70.70
2017-08-05T04:21:35.286Z,70.80
2017-08-05T04:24:02.921Z,70.80
2017-08-05T04:26:30.638Z,71.50
2017-08-05T04:28:58.275Z,72.00
2017-08-05T04:31:25.953Z,72.20
2017-08-05T04:33:53.674Z,71.40
2017-08-05T04:36:21.306Z,72.60
2017-08-05T04:38:48.942Z,72.60
2017-08-05T04:41:16.626Z,71.60
2017-08-05T04:43:44.270Z,71.40
2017-08-05T04:46:11.999Z,71.60
2017-08-05T04:48:39.747Z,71.50
2017-08-05T04:51:07.495Z,71.60
2017-08-05T04:53:35.263Z,71.60
2017-08-05T04:56:12.139Z,71.60
2017-08-05T04:58:39.778Z,71.50
2017-08-05T05:01:07.903Z,71.20
2017-08-05T05:03:35.614Z,71.20
2017-08-05T05:06:03.605Z,70.30
2017-08-05T05:08:31.250Z,70.10
2017-08-05T05:10:58.938Z,70.50
2017-08-05T05:13:26.574Z,70.20
2017-08-05T05:15:54.698Z,70.40
2017-08-05T05:18:22.393Z,70.40
2017-08-05T05:20:50.087Z,69.90
2017-08-05T05:23:17.731Z,69.40
2017-08-05T05:25:45.581Z,68.60
2017-08-05T05:28:13.328Z,67.10
2017-08-05T05:30:40.962Z,66.40
2017-08-05T05:33:08.651Z,66.00
2017-08-05T05:35:36.674Z,64.00
2017-08-05T05:38:04.316Z,64.00
2017-08-05T05:40:32.095Z,63.80
2017-08-05T05:43:00.126Z,64.30
2017-08-05T05:45:27.754Z,64.30
2017-08-05T05:47:55.516Z,64.40
2017-08-05T05:50:23.145Z,64.10
2017-08-05T05:52:50.903Z,62.70
2017-08-05T05:55:18.653Z,62.30
2017-08-05T05:57:46.622Z,62.50
2017-08-05T06:00:14.349Z,60.40
2017-08-05T06:02:42.097Z,61.00
2017-08-05T06:05:09.741Z,60.60
2017-08-05T06:07:37.374Z,60.40
2017-08-05T06:10:05.063Z,60.30
2017-08-05T06:12:33.106Z,58.60
2017-08-05T06:15:01.137Z,57.90
2017-08-05T06:17:28.890Z,57.90
2017-08-05T06:19:56.668Z,57.60
2017-08-05T06:22:24.698Z,56.20
2017-08-05T06:24:52.440Z,56.20
2017-08-05T06:27:20.087Z,57.10
2017-08-05T06:29:47.725Z,56.70
2017-08-05T06:32:15.412Z,58.10
2017-08-05T06:34:43.434Z,54.80
2017-08-05T06:37:11.074Z,54.80
2017-08-05T06:39:38.761Z,55.30
2017-08-05T06:42:06.394Z,55.20
2017-08-05T06:44:34.111Z,54.60
2017-08-05T06:47:01.856Z,53.40
2017-08-05T06:49:29.490Z,55.00
2017-08-05T06:51:57.122Z,54.00
2017-08-05T06:54:24.810Z,55.80
2017-08-05T06:56:52.447Z,55.30
2017-08-05T06:59:20.184Z,54.10
2017-08-05T07:01:47.966Z,54.90
2017-08-05T07:04:16.086Z,52.20
2017-08-05T07:06:43.731Z,52.20
2017-08-05T07:09:11.411Z,52.50
2017-08-05T07:11:39.441Z,53.80
2017-08-05T07:14:07.081Z,53.80
2017-08-05T07:16:34.759Z,53.70
2017-08-05T07:19:02.792Z,53.60
2017-08-05T07:21:30.447Z,53.60
2017-08-05T07:23:58.526Z,52.90
2017-08-05T07:26:26.223Z,53.00
2017-08-05T07:28:53.855Z,52.50
2017-08-05T07:31:21.549Z,54.10
2017-08-05T07:33:49.191Z,53.50
2017-08-05T07:36:16.821Z,54.50
2017-08-05T07:38:44.530Z,55.00
2017-08-05T07:41:12.155Z,54.50
2017-08-05T07:43:39.792Z,55.30
2017-08-05T07:46:07.479Z,54.70
2017-08-05T07:48:35.118Z,55.60
2017-08-05T07:51:02.777Z,55.80
2017-08-05T07:53:30.471Z,55.10
2017-08-05T07:55:58.111Z,55.70
2017-08-05T07:58:25.758Z,54.70
2017-08-05T08:00:53.456Z,55.00
2017-08-05T08:03:21.100Z,54.70
2017-08-05T08:05:48.848Z,55.00
2017-08-05T08:08:16.538Z,54.60
2017-08-05T08:10:44.161Z,54.10
2017-08-05T08:13:12.194Z,54.90
2017-08-05T08:15:39.874Z,54.90
2017-08-05T08:18:07.583Z,55.50
2017-08-05T08:20:35.211Z,56.80
2017-08-05T08:23:02.979Z,57.20
2017-08-05T08:25:30.623Z,56.40
2017-08-05T08:27:58.266Z,55.00
2017-08-05T08:30:25.947Z,55.20
2017-08-05T08:32:53.977Z,54.70
2017-08-05T08:35:21.615Z,54.60
2017-08-05T08:37:49.298Z,55.50
2017-08-05T08:40:17.003Z,54.70
2017-08-05T08:42:44.629Z,55.40
2017-08-05T08:45:12.310Z,55.10
2017-08-05T08:47:39.947Z,56.10
2017-08-05T08:50:07.579Z,55.50
2017-08-05T08:52:35.430Z,54.80
2017-08-05T08:55:03.061Z,55.80
2017-08-05T08:57:30.692Z,55.40
2017-08-05T08:59:58.377Z,55.80
2017-08-05T09:02:26.006Z,56.10
2017-08-05T09:04:53.654Z,56.10
2017-08-05T09:07:21.363Z,55.60
2017-08-05T09:09:48.999Z,55.00
2017-08-05T09:12:16.693Z,57.40
2017-08-05T09:14:44.440Z,54.70
2017-08-05T09:17:12.078Z,53.80
2017-08-05T09:19:39.730Z,55.30
2017-08-05T09:22:07.434Z,55.30
2017-08-05T09:24:35.078Z,56.50
2017-08-05T09:27:02.714Z,55.90
2017-08-05T09:29:30.446Z,56.70
2017-08-05T09:31:58.477Z,54.70
2017-08-05T09:34:26.124Z,54.70
2017-08-05T09:36:53.839Z,55.00
2017-08-05T09:39:21.490Z,55.10
2017-08-05T09:41:49.121Z,55.80
2017-08-05T09:44:16.813Z,54.90
2017-08-05T09:46:44.541Z,54.80
2017-08-05T09:49:12.287Z,54.40
2017-08-05T09:51:40.036Z,54.00
2017-08-05T09:54:07.674Z,55.90
2017-08-05T09:56:35.401Z,54.20
2017-08-05T09:59:03.102Z,55.30
2017-08-05T10:01:30.730Z,55.50
2017-08-05T10:03:58.366Z,55.50
2017-08-05T10:06:26.063Z,55.40
2017-08-05T10:08:53.703Z,55.90
2017-08-05T10:11:21.334Z,54.80
2017-08-05T10:13:49.147Z,54.30
2017-08-05T10:16:16.782Z,55.20
2017-08-05T10:18:44.422Z,55.70
2017-08-05T10:21:12.128Z,54.90
2017-08-05T10:23:39.829Z,56.70
2017-08-05T10:26:07.574Z,56.60
2017-08-05T10:28:35.425Z,55.20
2017-08-05T10:31:03.072Z,55.70
2017-08-05T10:33:30.708Z,54.70
2017-08-05T10:35:58.463Z,54.00
2017-08-05T10:38:26.089Z,55.00
2017-08-05T10:40:53.772Z,54.10
2017-08-05T10:43:21.870Z,54.00
2017-08-05T10:45:49.497Z,54.00
2017-08-05T10:48:17.199Z,52.70
2017-08-05T10:50:44.946Z,53.00
2017-08-05T10:53:12.586Z,53.20
2017-08-05T10:55:40.217Z,52.80
2017-08-05T10:58:07.896Z,52.70
2017-08-05T11:00:35.541Z,54.20
2017-08-05T11:03:03.342Z,52.70
2017-08-05T11:05:31.124Z,51.20
2017-08-05T11:07:58.761Z,51.70
2017-08-05T11:10:26.403Z,51.70
2017-08-05T11:12:54.106Z,53.30
2017-08-05T11:15:21.743Z,53.50
2017-08-05T11:17:49.449Z,54.00
2017-08-05T11:20:17.157Z,51.70
2017-08-05T11:22:44.841Z,52.10
2017-08-05T11:25:12.491Z,53.30
2017-08-05T11:27:40.233Z,53.60
2017-08-05T11:30:07.886Z,53.80
2017-08-05T11:32:35.522Z,53.30
2017-08-05T11:35:03.243Z,53.10
2017-08-05T11:37:30.873Z,53.80
2017-08-05T11:39:58.548Z,55.60
2017-08-05T11:42:26.310Z,54.90
2017-08-05T11:44:53.952Z,54.90
2017-08-05T11:47:21.586Z,53.60
2017-08-05T11:49:49.271Z,52.90
2017-08-05T11:52:17.303Z,52.20
2017-08-05T11:54:45.044Z,52.10
2017-08-05T11:57:12.791Z,51.10
2017-08-05T11:59:40.435Z,51.40
2017-08-05T12:02:08.079Z,51.30
2017-08-05T12:04:35.758Z,52.50
2017-08-05T12:07:03.799Z,51.70
2017-08-05T12:09:31.832Z,53.30
2017-08-05T12:11:59.518Z,53.30
2017-08-05T12:14:27.637Z,53.50
2017-08-05T12:16:55.279Z,53.50
2017-08-05T12:19:23.029Z,54.10
2017-08-05T12:21:50.667Z,54.20
2017-08-05T12:24:18.297Z,53.20
2017-08-05T12:26:46.078Z,53.60
2017-08-05T12:29:13.814Z,55.30
2017-08-05T12:31:41.457Z,54.80
2017-08-05T12:34:09.235Z,55.40
2017-08-05T12:36:37.361Z,55.70
2017-08-05T12:39:05.213Z,55.70
2017-08-05T12:41:32.890Z,56.40
2017-08-05T12:44:00.923Z,55.40
2017-08-05T12:46:28.659Z,55.40
2017-08-05T12:48:56.406Z,55.30
2017-08-05T12:51:24.049Z,53.80
2017-08-05T12:53:51.682Z,53.80
2017-08-05T12:56:19.359Z,53.30
2017-08-05T12:58:47.088Z,54.10
2017-08-05T13:01:14.721Z,53.70
2017-08-05T13:03:42.418Z,53.20
2017-08-05T13:06:10.097Z,52.60
2017-08-05T13:08:38.175Z,52.70
2017-08-05T13:11:05.850Z,51.80
2017-08-05T13:13:33.982Z,53.10
2017-08-05T13:16:01.749Z,53.10
2017-08-05T13:18:29.450Z,53.50
2017-08-05T13:20:57.121Z,53.60
2017-08-05T13:23:24.763Z,53.50
2017-08-05T13:25:52.513Z,52.90
2017-08-05T13:28:20.158Z,53.70
2017-08-05T13:30:47.905Z,53.60
2017-08-05T13:33:15.594Z,53.10
2017-08-05T13:35:43.234Z,54.40
2017-08-05T13:38:10.869Z,54.50
2017-08-05T13:40:38.590Z,54.60
2017-08-05T13:43:06.332Z,54.60
2017-08-05T13:45:33.980Z,53.10
2017-08-05T13:48:01.727Z,54.10
2017-08-05T13:50:29.358Z,54.10
2017-08-05T13:52:56.991Z,54.20
2017-08-05T13:55:24.764Z,54.40
2017-08-05T13:57:52.418Z,54.60
2017-08-05T14:00:20.046Z,54.00
2017-08-05T14:02:47.902Z,55.00
2017-08-05T14:05:15.546Z,55.40
2017-08-05T14:07:43.193Z,54.90
2017-08-05T14:10:10.872Z,54.40
2017-08-05T14:12:38.582Z,55.00
2017-08-05T14:15:06.331Z,55.70
2017-08-05T14:17:34.083Z,54.10
2017-08-05T14:20:01.830Z,54.30
2017-08-05T14:22:29.472Z,54.60
2017-08-05T14:24:57.224Z,55.90
2017-08-05T14:27:24.967Z,54.30
2017-08-05T14:29:52.597Z,54.60
2017-08-05T14:32:20.286Z,54.70
2017-08-05T14:34:48.412Z,56.20
2017-08-05T14:37:16.056Z,56.30
2017-08-05T14:39:43.804Z,55.90
2017-08-05T14:42:11.448Z,56.40
2017-08-05T14:44:39.197Z,56.40
2017-08-05T14:47:06.942Z,56.50
2017-08-05T14:49:34.589Z,56.20
2017-08-05T14:52:02.236Z,56.10
2017-08-05T14:54:29.982Z,56.20
2017-08-05T14:56:57.611Z,53.60
2017-08-05T14:59:25.248Z,52.80
2017-08-05T15:01:52.950Z,53.60
2017-08-05T15:04:21.073Z,52.10
2017-08-05T15:06:48.717Z,52.10
2017-08-05T15:09:16.414Z,52.10
2017-08-05T15:11:44.066Z,51.90
2017-08-05T15:14:11.753Z,52.70
2017-08-05T15:16:39.500Z,52.30
2017-08-05T15:19:07.144Z,52.70
2017-08-05T15:21:34.770Z,52.90
2017-08-05T15:24:02.506Z,53.80
2017-08-05T15:26:30.185Z,54.50
2017-08-05T15:28:57.828Z,54.00
2017-08-05T15:31:25.576Z,54.10
2017-08-05T15:33:53.225Z,54.90
2017-08-05T15:36:20.968Z,54.70
2017-08-05T15:38:48.660Z,54.20
2017-08-05T15:41:16.360Z,54.40
2017-08-05T15:43:44.006Z,55.00
2017-08-05T15:46:11.683Z,54.10
2017-08-05T15:48:39.707Z,54.30
2017-08-05T15:51:07.334Z,54.30
2017-08-05T15:53:35.200Z,53.30
2017-08-05T15:56:02.838Z,54.10
2017-08-05T15:58:30.490Z,53.90
2017-08-05T16:00:58.267Z,54.30
2017-08-05T16:03:26.398Z,53.60
2017-08-05T16:05:54.030Z,53.60
2017-08-05T16:08:21.788Z,54.30
2017-08-05T16:10:49.422Z,53.40
2017-08-05T16:13:17.076Z,53.10
2017-08-05T16:15:44.822Z,53.60
2017-08-05T16:18:12.459Z,52.20
2017-08-05T16:20:40.213Z,52.90
2017-08-05T16:23:07.895Z,52.90
2017-08-05T16:25:35.529Z,53.40
2017-08-05T16:28:03.662Z,54.00
2017-08-05T16:30:31.349Z,53.90
2017-08-05T16:32:58.983Z,52.90
2017-08-05T16:35:27.021Z,54.10
2017-08-05T16:37:54.752Z,54.10
2017-08-05T16:40:22.382Z,53.80
2017-08-05T16:42:50.021Z,53.50
2017-08-05T16:45:17.789Z,53.40
2017-08-05T16:47:45.421Z,53.60
2017-08-05T16:50:13.078Z,54.40
2017-08-05T16:52:40.826Z,53.70
2017-08-05T16:55:08.469Z,53.90
2017-08-05T16:57:36.102Z,53.90
2017-08-05T17:00:03.810Z,54.20
2017-08-05T17:02:31.445Z,53.70
2017-08-05T17:04:59.474Z,53.90
2017-08-05T17:07:27.208Z,53.90
2017-08-05T17:09:54.852Z,54.30
2017-08-05T17:12:22.485Z,54.40
2017-08-05T17:14:50.244Z,54.00
2017-08-05T17:17:17.888Z,54.30
2017-08-05T17:19:45.519Z,54.40
2017-08-05T17:22:13.281Z,54.80
2017-08-05T17:24:40.918Z,54.60
2017-08-05T17:27:08.569Z,54.60
2017-08-05T17:29:36.419Z,55.40
2017-08-05T17:32:04.063Z,55.40
2017-08-05T17:34:31.711Z,56.00
2017-08-05T17:36:59.562Z,55.30
2017-08-05T17:39:27.206Z,55.10
2017-08-05T17:41:54.952Z,55.60
2017-08-05T17:44:22.630Z,55.20
2017-08-05T17:46:50.758Z,55.20
2017-08-05T17:49:18.390Z,55.20
2017-08-05T17:51:46.078Z,55.50
2017-08-05T17:54:14.200Z,55.60
2017-08-05T17:56:41.948Z,55.60
2017-08-05T17:59:09.649Z,56.20
2017-08-05T18:01:37.293Z,56.10
2017-08-05T18:04:05.803Z,56.30
2017-08-05T18:06:33.553Z,56.10
2017-08-05T18:09:01.181Z,56.70
2017-08-05T18:11:28.858Z,57.00
2017-08-05T18:13:56.589Z,57.20
2017-08-05T18:16:24.342Z,57.20
2017-08-05T18:18:52.003Z,57.60
2017-08-05T18:21:20.232Z,58.20
2017-08-05T18:23:48.089Z,58.20
2017-08-05T18:26:15.837Z,58.50
2017-08-05T18:28:44.095Z,58.70
2017-08-05T18:31:11.945Z,58.70
2017-08-05T18:33:39.693Z,59.00
2017-08-05T18:36:07.482Z,58.90
2017-08-05T18:38:35.158Z,58.90
2017-08-05T18:41:02.834Z,59.40
2017-08-05T18:43:30.684Z,59.60
2017-08-05T18:45:58.430Z,60.00
2017-08-05T18:48:26.280Z,60.30
2017-08-05T18:50:54.205Z,60.50
2017-08-05T18:53:21.850Z,60.70
2017-08-05T18:55:49.598Z,61.10
2017-08-05T18:58:17.474Z,61.30
2017-08-05T19:00:45.628Z,61.40
2017-08-05T19:03:13.273Z,61.40
2017-08-05T19:05:41.022Z,60.90
2017-08-05T19:08:08.768Z,61.50
2017-08-05T19:10:36.435Z,61.20
2017-08-05T19:13:04.260Z,62.40
2017-08-05T19:15:32.013Z,62.60
2017-08-05T19:17:59.759Z,63.00
2017-08-05T19:20:27.453Z,63.10
2017-08-05T19:22:55.150Z,65.30
2017-08-05T19:25:22.819Z,69.60
2017-08-05T19:27:50.934Z,71.70
2017-08-05T19:30:18.802Z,71.70
2017-08-05T19:32:46.572Z,73.60
2017-08-05T19:35:14.778Z,75.40
2017-08-05T19:37:42.555Z,75.40
2017-08-05T19:40:10.308Z,76.40
2017-08-05T19:42:38.154Z,76.40
2017-08-05T19:45:05.865Z,77.00
2017-08-05T19:47:33.649Z,76.40
2017-08-05T19:50:02.934Z,75.30
2017-08-05T19:52:30.784Z,75.30
2017-08-05T19:54:58.630Z,74.80
2017-08-05T19:57:26.318Z,73.10
2017-08-05T19:59:54.054Z,70.30
2017-08-05T20:02:22.385Z,84.10
2017-08-05T20:04:50.070Z,84.10
2017-08-05T20:07:17.775Z,85.50
2017-08-05T20:09:45.626Z,88.10
2017-08-05T20:12:13.375Z,91.40
2017-08-05T20:14:41.008Z,91.00
2017-08-05T20:17:08.763Z,89.90
2017-08-05T20:19:36.613Z,90.60
2017-08-05T20:22:04.875Z,92.60
2017-08-05T20:24:32.829Z,90.90
2017-08-05T20:27:00.677Z,93.00
2017-08-05T20:29:28.302Z,90.80
2017-08-05T20:31:55.941Z,93.40
2017-08-05T20:34:23.712Z,93.50
2017-08-05T20:36:51.476Z,92.00
2017-08-05T20:39:19.158Z,92.50
2017-08-05T20:41:46.833Z,91.30
2017-08-05T20:44:14.458Z,92.00
2017-08-05T20:46:42.106Z,90.40
2017-08-05T20:49:09.989Z,90.80
2017-08-05T20:51:37.623Z,91.80
2017-08-05T20:54:05.276Z,90.00
2017-08-05T20:56:32.950Z,90.00
2017-08-05T20:59:00.970Z,88.90
2017-08-05T21:01:28.602Z,88.90
2017-08-05T21:03:56.373Z,85.20
2017-08-05T21:06:24.015Z,85.70
2017-08-05T21:08:51.660Z,85.70
2017-08-05T21:11:19.409Z,86.90
2017-08-05T21:13:47.155Z,86.90
2017-08-05T21:16:14.781Z,87.70
2017-08-05T21:18:42.547Z,88.00
2017-08-05T21:21:10.191Z,88.20
2017-08-05T21:26:11.932Z,88.00
2017-08-05T21:28:39.586Z,86.10
2017-08-05T21:31:07.223Z,87.50
2017-08-05T21:33:34.973Z,86.30
2017-08-05T21:36:02.719Z,85.30
2017-08-05T21:38:30.363Z,85.70
2017-08-05T21:40:58.316Z,86.10
2017-08-05T21:43:26.477Z,83.80
2017-08-05T21:45:54.121Z,83.70
2017-08-05T21:48:21.863Z,84.50
2017-08-05T21:50:49.497Z,84.70
2017-08-05T21:53:17.122Z,84.80
2017-08-05T21:55:45.002Z,84.00
2017-08-05T21:58:12.645Z,85.60
2017-08-05T22:00:40.314Z,85.30
2017-08-05T22:03:08.551Z,84.70
2017-08-05T22:05:36.297Z,84.70
2017-08-05T22:08:03.942Z,84.20
2017-08-05T22:10:31.795Z,85.20
2017-08-05T22:12:59.423Z,83.50
2017-08-05T22:15:27.084Z,83.60
2017-08-05T22:17:54.836Z,83.70
2017-08-05T22:20:22.474Z,84.90
2017-08-05T22:22:50.110Z,83.50
2017-08-05T22:25:17.868Z,84.30
2017-08-05T22:27:45.502Z,82.70
2017-08-05T22:30:13.156Z,82.40
2017-08-05T22:32:40.903Z,81.70
2017-08-05T22:35:08.547Z,81.60
2017-08-05T22:37:36.177Z,81.30
2017-08-05T22:40:03.867Z,81.10
2017-08-05T22:42:31.498Z,82.00
2017-08-05T22:44:59.132Z,82.10
2017-08-05T22:47:26.878Z,81.50
2017-08-05T22:49:54.506Z,81.70
2017-08-05T22:52:22.165Z,81.10
2017-08-05T22:54:49.854Z,81.50
2017-08-05T22:57:17.485Z,83.00
2017-08-05T22:59:45.514Z,81.60
2017-08-05T23:02:13.233Z,81.60
2017-08-05T23:04:40.902Z,80.40
2017-08-05T23:07:08.545Z,80.70
2017-08-05T23:09:36.315Z,80.60
2017-08-05T23:12:04.044Z,80.20
2017-08-05T23:14:31.687Z,78.30
2017-08-05T23:16:59.366Z,79.90
2017-08-05T23:19:27.391Z,80.40
2017-08-05T23:21:55.134Z,80.40
2017-08-05T23:24:22.882Z,80.10
2017-08-05T23:26:50.513Z,80.10
2017-08-05T23:29:18.150Z,80.80
2017-08-05T23:31:45.917Z,81.10
2017-08-05T23:34:13.665Z,79.00
2017-08-05T23:36:41.309Z,78.60
2017-08-05T23:39:08.987Z,78.40
2017-08-05T23:41:36.700Z,77.20
2017-08-05T23:44:04.329Z,77.00
2017-08-05T23:46:32.197Z,78.40
2017-08-05T23:48:59.945Z,78.40
2017-08-05T23:51:27.582Z,79.20
2017-08-05T23:53:55.337Z,78.80
2017-08-05T23:56:22.957Z,78.50
2017-08-05T23:58:50.581Z,78.70
